Terminal Aerodrome Forecast
Issued by NWS Sioux Falls, SD

Home | Current Version | Previous Version | Graphics & Text | Print | Product List | Glossary On
Versions: 1 2 3 4 5 6 7 8 9 10 11 12 13 14 15 16 17 18 19 20
417
FTUS43 KFSD 032343
TAFFSD
TAF
KFSD 032343Z 0400/0424 30008KT P6SM SCT250
     FM040200 23005KT P6SM SCT120
     FM041300 26007KT P6SM BKN080=

USA.gov is the U.S. government's official web portal to all federal, state and local government web resources and services.